Webcam Flughafen St.Gallen-Altenrhein

Live-Bilder und Zeitraffer LSZR / ACH.

 

Live aus Altenrhein
LIVE
LSZR 110850Z 28004KT 250V320 CAVOK 24/16 Q1018 NOSIG RMK E
Zeitraffer heute
2020-08-11 00:14:40
LSZR 102150Z AUTO 27004KT 230V320 CAVOK 26/15 Q1016